createdAt,value
2023-05-12T00:00:46.404Z,11.42
2023-05-12T00:03:19.179Z,11.34
2023-05-12T00:05:51.463Z,11.29
2023-05-12T00:08:23.506Z,11.20
2023-05-12T00:10:56.012Z,11.18
2023-05-12T00:13:29.145Z,11.12
2023-05-12T00:16:01.254Z,11.05
2023-05-12T00:18:33.369Z,11.02
2023-05-12T00:21:05.747Z,10.93
2023-05-12T00:23:37.859Z,10.87
2023-05-12T00:26:09.963Z,10.83
2023-05-12T00:28:42.277Z,10.77
2023-05-12T00:31:14.612Z,10.74
2023-05-12T00:33:46.873Z,10.69
2023-05-12T00:36:19.112Z,10.66
2023-05-12T00:38:51.501Z,10.61
2023-05-12T00:41:23.789Z,10.56
2023-05-12T00:43:56.212Z,10.52
2023-05-12T00:46:28.883Z,10.46
2023-05-12T00:49:01.608Z,10.41
2023-05-12T00:51:34.172Z,10.40
2023-05-12T00:54:06.556Z,10.37
2023-05-12T00:56:39.955Z,10.34
2023-05-12T00:59:13.130Z,10.31
2023-05-12T01:01:46.343Z,10.28
2023-05-12T01:04:18.977Z,10.23
2023-05-12T01:06:54.929Z,10.17
2023-05-12T01:09:27.566Z,10.17
2023-05-12T01:12:00.377Z,10.15
2023-05-12T01:14:34.287Z,10.11
2023-05-12T01:17:09.401Z,10.08
2023-05-12T01:19:50.256Z,10.09
2023-05-12T01:22:23.701Z,10.07
2023-05-12T01:25:08.000Z,10.11
2023-05-12T01:27:42.351Z,10.14
2023-05-12T01:30:20.317Z,10.13
2023-05-12T01:32:54.052Z,10.14
2023-05-12T01:35:26.320Z,10.13
2023-05-12T01:38:00.054Z,10.12
2023-05-12T01:40:32.145Z,10.12
2023-05-12T01:43:04.489Z,10.12
2023-05-12T01:45:37.466Z,10.10
2023-05-12T01:48:09.810Z,10.15
2023-05-12T01:50:42.594Z,10.21
2023-05-12T01:53:16.286Z,10.25
2023-05-12T01:55:48.428Z,10.29
2023-05-12T01:58:20.666Z,10.33
2023-05-12T02:00:53.733Z,10.35
2023-05-12T02:03:25.842Z,10.39
2023-05-12T02:05:59.658Z,10.45
2023-05-12T02:08:31.890Z,10.45
2023-05-12T02:11:11.528Z,10.48
2023-05-12T02:13:47.028Z,10.54
2023-05-12T02:16:19.836Z,10.60
2023-05-12T02:18:52.271Z,10.67
2023-05-12T02:21:25.300Z,10.75
2023-05-12T02:23:57.803Z,10.83
2023-05-12T02:26:30.793Z,10.90
2023-05-12T02:29:03.251Z,10.99
2023-05-12T02:31:35.629Z,11.07
2023-05-12T02:34:09.495Z,11.17
2023-05-12T02:36:41.755Z,11.26
2023-05-12T02:39:14.265Z,11.34
2023-05-12T02:41:46.560Z,11.41
2023-05-12T02:44:20.382Z,11.49
2023-05-12T02:46:52.849Z,11.56
2023-05-12T02:49:25.216Z,11.65
2023-05-12T02:51:57.808Z,11.73
2023-05-12T02:54:29.974Z,11.84
2023-05-12T02:57:05.146Z,11.97
2023-05-12T02:59:37.745Z,12.10
2023-05-12T03:02:10.260Z,12.23
2023-05-12T03:04:43.861Z,12.38
2023-05-12T03:07:16.502Z,12.55
2023-05-12T03:09:49.153Z,12.72
2023-05-12T03:12:21.359Z,12.91
2023-05-12T03:14:53.446Z,13.13
2023-05-12T03:17:25.566Z,13.32
2023-05-12T03:19:58.428Z,13.48
2023-05-12T03:22:30.731Z,13.62
2023-05-12T03:25:04.219Z,13.79
2023-05-12T03:27:37.026Z,13.91
2023-05-12T03:30:10.213Z,14.05
2023-05-12T03:32:42.935Z,14.18
2023-05-12T03:35:15.528Z,14.30
2023-05-12T03:37:48.133Z,14.41
2023-05-12T03:40:20.463Z,14.51
2023-05-12T03:42:53.048Z,14.61
2023-05-12T03:45:25.451Z,14.70
2023-05-12T03:47:58.648Z,14.78
2023-05-12T03:50:31.798Z,14.84
2023-05-12T03:53:04.293Z,14.94
2023-05-12T03:55:38.512Z,15.04
2023-05-12T03:58:11.092Z,15.14
2023-05-12T04:00:44.308Z,15.22
2023-05-12T04:03:16.413Z,15.35
2023-05-12T04:05:48.678Z,15.40
2023-05-12T04:08:21.092Z,15.47
2023-05-12T04:10:58.727Z,15.47
2023-05-12T04:13:33.128Z,15.68
2023-05-12T04:16:05.878Z,15.76
2023-05-12T04:18:38.650Z,15.83
2023-05-12T04:21:12.648Z,15.83
2023-05-12T04:23:45.079Z,16.07
2023-05-12T04:26:17.267Z,16.11
2023-05-12T04:28:49.431Z,16.24
2023-05-12T04:31:21.710Z,16.50
2023-05-12T04:33:56.154Z,16.50
2023-05-12T04:36:29.484Z,16.65
2023-05-12T04:41:53.574Z,16.70
2023-05-12T04:44:26.208Z,16.63
2023-05-12T04:46:58.861Z,16.66
2023-05-12T04:49:33.351Z,16.55
2023-05-12T04:52:06.076Z,16.33
2023-05-12T04:54:39.146Z,16.21
2023-05-12T04:57:11.426Z,16.13
2023-05-12T04:59:44.648Z,16.07
2023-05-12T05:02:17.551Z,16.05
2023-05-12T05:04:50.844Z,16.02
2023-05-12T05:07:24.237Z,16.08
2023-05-12T05:09:57.295Z,16.08
2023-05-12T05:12:31.240Z,16.10
2023-05-12T05:15:03.846Z,16.14
2023-05-12T05:17:36.860Z,16.24
2023-05-12T05:20:12.667Z,16.24
2023-05-12T05:22:45.035Z,16.31
2023-05-12T05:25:17.060Z,16.56
2023-05-12T05:27:50.699Z,16.38
2023-05-12T05:30:23.111Z,16.43
2023-05-12T05:32:55.704Z,16.47
2023-05-12T05:35:28.441Z,16.47
2023-05-12T05:38:01.203Z,16.45
2023-05-12T05:40:48.832Z,16.50
2023-05-12T05:43:09.973Z,16.57
2023-05-12T05:45:42.543Z,16.70
2023-05-12T05:48:14.862Z,16.57
2023-05-12T05:50:47.295Z,16.84
2023-05-12T05:53:20.439Z,16.90
2023-05-12T05:55:53.673Z,17.17
2023-05-12T05:58:28.007Z,17.34
2023-05-12T06:01:02.417Z,17.49
2023-05-12T06:03:37.068Z,17.64
2023-05-12T06:06:09.833Z,17.75
2023-05-12T06:08:42.132Z,17.86
2023-05-12T06:11:15.972Z,18.02
2023-05-12T06:13:48.953Z,18.14
2023-05-12T06:16:21.745Z,18.35
2023-05-12T06:18:54.586Z,18.72
2023-05-12T06:21:27.758Z,19.37
2023-05-12T06:23:59.982Z,19.74
2023-05-12T06:26:34.814Z,19.80
2023-05-12T06:29:08.982Z,19.76
2023-05-12T06:31:41.318Z,19.71
2023-05-12T06:34:13.911Z,19.60
2023-05-12T06:36:46.617Z,19.55
2023-05-12T06:39:19.138Z,19.48
2023-05-12T06:41:52.237Z,19.45
2023-05-12T06:44:25.490Z,19.50
2023-05-12T06:46:57.636Z,19.54
2023-05-12T06:49:31.769Z,19.50
2023-05-12T06:52:05.926Z,19.55
2023-05-12T06:54:38.567Z,19.56
2023-05-12T06:57:11.057Z,19.60
2023-05-12T06:59:43.709Z,19.62
2023-05-12T07:02:17.569Z,19.65
2023-05-12T07:04:50.001Z,19.73
2023-05-12T07:07:22.897Z,19.77
2023-05-12T07:09:55.250Z,19.83
2023-05-12T07:12:27.616Z,19.89
2023-05-12T07:15:00.598Z,19.99
2023-05-12T07:17:34.452Z,20.05
2023-05-12T07:20:07.371Z,20.16
2023-05-12T07:22:39.942Z,20.27
2023-05-12T07:25:13.434Z,20.39
2023-05-12T07:27:47.272Z,20.51
2023-05-12T07:30:20.163Z,20.58
2023-05-12T07:32:53.031Z,20.62
2023-05-12T07:35:25.873Z,20.71
2023-05-12T07:37:58.244Z,20.78
2023-05-12T07:40:30.539Z,20.85
2023-05-12T07:43:03.007Z,20.88
2023-05-12T07:45:36.510Z,20.96
2023-05-12T07:48:09.791Z,20.98
2023-05-12T07:50:42.838Z,21.00
2023-05-12T07:53:15.361Z,20.98
2023-05-12T07:55:48.103Z,20.95
2023-05-12T07:58:20.814Z,20.97
2023-05-12T08:00:54.577Z,21.02
2023-05-12T08:03:26.929Z,21.07
2023-05-12T08:05:59.188Z,21.07
2023-05-12T08:08:31.757Z,21.23
2023-05-12T08:11:04.737Z,21.30
2023-05-12T08:13:38.796Z,21.32
2023-05-12T08:16:11.151Z,21.43
2023-05-12T08:18:43.659Z,21.44
2023-05-12T08:21:16.569Z,21.53
2023-05-12T08:23:48.730Z,21.54
2023-05-12T08:26:21.697Z,21.65
2023-05-12T08:28:53.932Z,21.75
2023-05-12T08:31:27.848Z,21.87
2023-05-12T08:34:09.671Z,21.92
2023-05-12T08:36:35.251Z,22.06
2023-05-12T08:39:08.518Z,22.15
2023-05-12T08:41:44.896Z,22.16
2023-05-12T08:44:17.939Z,22.27
2023-05-12T08:46:50.576Z,22.35
2023-05-12T08:49:24.265Z,22.36
2023-05-12T08:51:58.646Z,22.52
2023-05-12T08:54:31.615Z,22.69
2023-05-12T08:57:09.066Z,22.92
2023-05-12T08:59:43.194Z,23.18
2023-05-12T09:02:17.360Z,23.39
2023-05-12T09:04:50.088Z,23.64
2023-05-12T09:07:25.032Z,23.90
2023-05-12T09:10:00.029Z,24.19
2023-05-12T09:12:36.617Z,24.54
2023-05-12T09:15:12.095Z,24.68
2023-05-12T09:17:44.972Z,25.00
2023-05-12T09:20:27.781Z,25.22
2023-05-12T09:22:51.438Z,25.33
2023-05-12T09:25:24.333Z,25.43
2023-05-12T09:27:57.768Z,25.43
2023-05-12T09:30:35.971Z,25.38
2023-05-12T09:33:14.092Z,25.19
2023-05-12T09:35:47.318Z,25.09
2023-05-12T09:38:20.461Z,25.01
2023-05-12T09:40:52.853Z,25.37
2023-05-12T09:43:25.705Z,24.91
2023-05-12T09:45:58.383Z,24.82
2023-05-12T09:48:32.658Z,24.73
2023-05-12T09:51:04.328Z,24.70
2023-05-12T09:53:39.716Z,25.04
2023-05-12T09:56:14.869Z,24.78
2023-05-12T09:58:49.235Z,25.15
2023-05-12T10:01:25.836Z,25.65
2023-05-12T10:03:59.644Z,26.02
2023-05-12T10:06:37.511Z,26.38
2023-05-12T10:09:18.566Z,26.39
2023-05-12T10:11:54.081Z,26.22
2023-05-12T10:14:27.066Z,26.03
2023-05-12T10:17:01.762Z,25.92
2023-05-12T10:19:34.430Z,25.85
2023-05-12T10:22:09.319Z,26.29
2023-05-12T10:24:42.988Z,26.01
2023-05-12T10:27:17.393Z,26.24
2023-05-12T10:29:51.544Z,26.39
2023-05-12T10:32:24.716Z,26.30
2023-05-12T10:34:57.244Z,26.23
2023-05-12T10:37:31.193Z,26.02
2023-05-12T10:40:05.109Z,25.88
2023-05-12T10:42:42.623Z,25.85
2023-05-12T10:45:19.445Z,25.82
2023-05-12T10:47:52.524Z,25.74
2023-05-12T10:50:31.069Z,25.67
2023-05-12T10:53:04.760Z,25.59
2023-05-12T10:55:39.879Z,25.46
2023-05-12T10:58:13.219Z,25.41
2023-05-12T11:00:55.803Z,25.35
2023-05-12T11:03:29.389Z,25.38
2023-05-12T11:06:05.384Z,25.43
2023-05-12T11:08:40.225Z,25.52
2023-05-12T11:11:13.653Z,25.39
2023-05-12T11:13:47.009Z,25.48
2023-05-12T11:16:19.469Z,25.85
2023-05-12T11:19:03.909Z,26.25
2023-05-12T11:21:38.152Z,27.79
2023-05-12T11:24:15.149Z,27.79
2023-05-12T11:26:49.298Z,28.81
2023-05-12T11:29:22.177Z,29.81
2023-05-12T11:31:55.122Z,30.20
2023-05-12T11:34:28.517Z,29.77
2023-05-12T11:37:01.349Z,29.34
2023-05-12T11:39:34.711Z,28.85
2023-05-12T11:42:13.998Z,28.69
2023-05-12T11:44:50.630Z,28.49
2023-05-12T11:47:23.215Z,28.61
2023-05-12T11:49:56.842Z,29.37
2023-05-12T11:52:29.467Z,30.51
2023-05-12T11:55:03.415Z,31.33
2023-05-12T11:57:39.702Z,32.47
2023-05-12T12:00:13.446Z,33.58
2023-05-12T12:02:46.907Z,34.63
2023-05-12T12:05:22.188Z,35.53
2023-05-12T12:07:56.471Z,35.03
2023-05-12T12:10:28.918Z,33.83
2023-05-12T12:13:02.482Z,33.48
2023-05-12T12:15:35.037Z,32.56
2023-05-12T12:18:07.470Z,32.43
2023-05-12T12:20:39.895Z,31.79
2023-05-12T12:23:12.604Z,31.52
2023-05-12T12:25:45.198Z,31.54
2023-05-12T12:28:17.718Z,31.14
2023-05-12T12:30:50.076Z,31.07
2023-05-12T12:33:22.705Z,31.48
2023-05-12T12:35:55.489Z,32.26
2023-05-12T12:38:27.821Z,33.41
2023-05-12T12:41:00.793Z,34.64
2023-05-12T12:43:33.443Z,34.61
2023-05-12T12:46:06.316Z,33.86
2023-05-12T12:48:38.240Z,33.11
2023-05-12T12:51:11.116Z,32.83
2023-05-12T12:53:46.660Z,32.58
2023-05-12T12:56:19.751Z,32.38
2023-05-12T12:58:53.980Z,32.08
2023-05-12T13:01:26.862Z,32.24
2023-05-12T13:04:00.355Z,33.04
2023-05-12T13:06:32.935Z,34.23
2023-05-12T13:09:05.629Z,35.61
2023-05-12T13:11:38.632Z,37.13
2023-05-12T13:14:11.008Z,38.52
2023-05-12T13:16:43.548Z,39.93
2023-05-12T13:19:16.582Z,41.29
2023-05-12T13:21:49.666Z,42.07
2023-05-12T13:24:22.193Z,43.11
2023-05-12T13:26:55.371Z,43.29
2023-05-12T13:29:27.499Z,43.17
2023-05-12T13:31:59.914Z,43.57
2023-05-12T13:34:32.338Z,44.14
2023-05-12T13:37:04.695Z,44.61
2023-05-12T13:39:37.272Z,44.69
2023-05-12T13:42:09.978Z,45.09
2023-05-12T13:44:43.328Z,45.37
2023-05-12T13:47:16.361Z,45.27
2023-05-12T13:49:48.832Z,44.91
2023-05-12T13:52:21.044Z,42.38
2023-05-12T13:54:55.051Z,40.82
2023-05-12T13:57:26.449Z,40.75
2023-05-12T13:59:58.759Z,42.18
2023-05-12T14:02:33.130Z,39.55
2023-05-12T14:05:06.360Z,39.02
2023-05-12T14:07:38.822Z,38.33
2023-05-12T14:10:12.536Z,38.83
2023-05-12T14:12:45.473Z,39.49
2023-05-12T14:17:51.029Z,41.21
2023-05-12T14:20:23.390Z,42.98
2023-05-12T14:22:55.868Z,42.32
2023-05-12T14:25:29.984Z,43.20
2023-05-12T14:28:03.011Z,43.37
2023-05-12T14:30:36.700Z,43.24
2023-05-12T14:33:09.203Z,43.49
2023-05-12T14:35:41.704Z,43.18
2023-05-12T14:38:15.428Z,43.22
2023-05-12T14:40:49.580Z,43.49
2023-05-12T14:43:22.136Z,43.21
2023-05-12T14:45:57.856Z,42.36
2023-05-12T14:48:30.272Z,41.13
2023-05-12T14:51:03.399Z,39.99
2023-05-12T14:53:36.534Z,39.91
2023-05-12T14:56:08.744Z,40.32
2023-05-12T14:58:41.476Z,41.09
2023-05-12T15:01:13.869Z,41.56
2023-05-12T15:03:47.144Z,41.83
2023-05-12T15:06:19.313Z,41.59
2023-05-12T15:08:53.472Z,40.43
2023-05-12T15:11:26.074Z,39.91
2023-05-12T15:13:58.352Z,39.23
2023-05-12T15:16:30.978Z,37.70
2023-05-12T15:19:04.208Z,35.78
2023-05-12T15:21:36.985Z,34.05
2023-05-12T15:24:09.595Z,32.55
2023-05-12T15:26:42.988Z,31.38
2023-05-12T15:29:15.332Z,30.59
2023-05-12T15:31:49.627Z,30.04
2023-05-12T15:34:22.669Z,29.59
2023-05-12T15:36:55.245Z,29.11
2023-05-12T15:39:27.615Z,28.57
2023-05-12T15:42:01.269Z,28.07
2023-05-12T15:44:33.741Z,27.55
2023-05-12T15:47:08.013Z,27.09
2023-05-12T15:49:40.660Z,26.75
2023-05-12T15:52:13.055Z,26.50
2023-05-12T15:54:45.410Z,26.20
2023-05-12T15:57:17.489Z,25.94
2023-05-12T15:59:50.219Z,25.66
2023-05-12T16:02:23.620Z,25.39
2023-05-12T16:04:56.371Z,25.17
2023-05-12T16:07:31.284Z,24.92
2023-05-12T16:10:03.890Z,24.79
2023-05-12T16:12:36.032Z,24.62
2023-05-12T16:15:08.803Z,24.51
2023-05-12T16:17:41.631Z,24.38
2023-05-12T16:20:15.759Z,24.27
2023-05-12T16:22:48.707Z,24.16
2023-05-12T16:25:21.643Z,24.11
2023-05-12T16:27:54.022Z,24.01
2023-05-12T16:30:26.570Z,23.87
2023-05-12T16:32:58.879Z,23.76
2023-05-12T16:35:31.428Z,23.62
2023-05-12T16:38:04.076Z,23.47
2023-05-12T16:40:36.439Z,23.34
2023-05-12T16:43:08.535Z,23.24
2023-05-12T16:45:41.027Z,23.10
2023-05-12T16:48:13.432Z,22.98
2023-05-12T16:50:45.697Z,22.87
2023-05-12T16:53:18.137Z,22.76
2023-05-12T16:55:50.652Z,22.62
2023-05-12T16:58:23.269Z,22.47
2023-05-12T17:00:55.612Z,22.34
2023-05-12T17:03:29.692Z,22.22
2023-05-12T17:06:02.075Z,22.10
2023-05-12T17:08:37.588Z,21.96
2023-05-12T17:11:10.507Z,21.83
2023-05-12T17:13:44.041Z,21.69
2023-05-12T17:16:17.434Z,21.58
2023-05-12T17:21:24.293Z,21.31
2023-05-12T17:23:57.708Z,21.16
2023-05-12T17:26:30.288Z,21.02
2023-05-12T17:29:02.849Z,20.90
2023-05-12T17:31:35.645Z,20.73
2023-05-12T17:34:07.879Z,20.62
2023-05-12T17:36:40.532Z,20.57
2023-05-12T17:39:15.019Z,20.48
2023-05-12T17:41:47.842Z,20.37
2023-05-12T17:44:20.715Z,20.32
2023-05-12T17:46:53.220Z,20.24
2023-05-12T17:49:25.468Z,20.18
2023-05-12T17:51:57.696Z,20.13
2023-05-12T17:54:29.922Z,20.06
2023-05-12T17:57:02.491Z,19.93
2023-05-12T17:59:34.720Z,19.84
2023-05-12T18:02:07.966Z,19.73
2023-05-12T18:04:40.688Z,19.67
2023-05-12T18:07:13.183Z,19.62
2023-05-12T18:09:46.030Z,19.54
2023-05-12T18:12:19.192Z,19.42
2023-05-12T18:14:51.861Z,19.28
2023-05-12T18:17:24.398Z,19.16
2023-05-12T18:19:56.848Z,19.05
2023-05-12T18:22:29.254Z,18.96
2023-05-12T18:25:01.847Z,18.86
2023-05-12T18:27:34.623Z,18.74
2023-05-12T18:30:07.508Z,18.61
2023-05-12T18:32:41.922Z,18.47
2023-05-12T18:35:13.670Z,18.35
2023-05-12T18:37:45.412Z,18.38
2023-05-12T18:40:17.735Z,18.12
2023-05-12T18:42:50.994Z,18.03
2023-05-12T18:45:23.584Z,17.93
2023-05-12T18:47:55.917Z,17.86
2023-05-12T18:50:28.666Z,17.74
2023-05-12T18:53:00.925Z,17.70
2023-05-12T18:55:33.468Z,17.60
2023-05-12T18:58:06.058Z,17.48
2023-05-12T19:00:38.589Z,17.42
2023-05-12T19:03:10.779Z,17.36
2023-05-12T19:05:44.797Z,17.28
2023-05-12T19:08:21.419Z,17.16
2023-05-12T19:10:53.829Z,17.10
2023-05-12T19:13:25.964Z,17.00
2023-05-12T19:15:58.676Z,16.97
2023-05-12T19:18:31.622Z,16.92
2023-05-12T19:21:03.887Z,16.87
2023-05-12T19:23:36.384Z,16.81
2023-05-12T19:26:10.234Z,16.74
2023-05-12T19:28:42.893Z,16.69
2023-05-12T19:31:16.241Z,16.67
2023-05-12T19:33:49.065Z,16.60
2023-05-12T19:36:21.380Z,16.50
2023-05-12T19:38:54.363Z,16.43
2023-05-12T19:41:29.023Z,16.38
2023-05-12T19:44:01.482Z,16.34
2023-05-12T19:46:33.530Z,16.22
2023-05-12T19:49:06.589Z,16.16
2023-05-12T19:51:38.508Z,16.10
2023-05-12T19:54:10.779Z,16.02
2023-05-12T19:56:42.955Z,16.01
2023-05-12T19:59:15.126Z,15.97
2023-05-12T20:01:49.649Z,15.91
2023-05-12T20:04:21.026Z,15.92
2023-05-12T20:06:54.560Z,15.99
2023-05-12T20:09:26.823Z,15.84
2023-05-12T20:11:59.420Z,15.79
2023-05-12T20:14:31.508Z,15.77
2023-05-12T20:17:05.527Z,15.71
2023-05-12T20:19:37.825Z,15.66
2023-05-12T20:22:10.141Z,15.57
2023-05-12T20:24:42.607Z,15.58
2023-05-12T20:27:14.648Z,15.56
2023-05-12T20:29:47.079Z,15.53
2023-05-12T20:32:19.363Z,15.57
2023-05-12T20:34:52.243Z,15.44
2023-05-12T20:37:25.120Z,15.54
2023-05-12T20:39:57.672Z,15.55
2023-05-12T20:42:29.944Z,15.55
2023-05-12T20:45:02.258Z,15.54
2023-05-12T20:47:37.437Z,15.53
2023-05-12T20:50:10.911Z,15.54
2023-05-12T20:52:43.425Z,15.49
2023-05-12T20:55:15.373Z,15.47
2023-05-12T20:57:47.418Z,15.40
2023-05-12T21:00:20.289Z,15.35
2023-05-12T21:02:52.698Z,15.26
2023-05-12T21:05:24.828Z,15.21
2023-05-12T21:07:57.048Z,15.22
2023-05-12T21:10:29.120Z,15.11
2023-05-12T21:13:01.216Z,15.07
2023-05-12T21:15:33.319Z,14.98
2023-05-12T21:18:05.617Z,14.98
2023-05-12T21:20:38.108Z,14.92
2023-05-12T21:23:11.716Z,14.77
2023-05-12T21:25:43.745Z,14.77
2023-05-12T21:28:15.977Z,14.75
2023-05-12T21:30:48.133Z,14.72
2023-05-12T21:33:20.549Z,14.76
2023-05-12T21:35:52.614Z,14.76
2023-05-12T21:38:25.070Z,14.82
2023-05-12T21:40:57.828Z,14.86
2023-05-12T21:43:29.950Z,14.75
2023-05-12T21:46:04.244Z,14.75
2023-05-12T21:48:36.704Z,14.90
2023-05-12T21:51:09.024Z,14.86
2023-05-12T21:53:40.970Z,14.86
2023-05-12T21:56:14.540Z,14.85
2023-05-12T21:58:46.648Z,14.80
2023-05-12T22:01:20.140Z,14.85
2023-05-12T22:03:52.254Z,14.91
2023-05-12T22:06:24.220Z,14.83
2023-05-12T22:08:56.293Z,14.83
2023-05-12T22:11:28.453Z,14.93
2023-05-12T22:14:00.616Z,14.93
2023-05-12T22:16:41.231Z,14.88
2023-05-12T22:19:06.864Z,14.87
2023-05-12T22:21:39.363Z,14.84
2023-05-12T22:24:11.552Z,14.85
2023-05-12T22:26:52.785Z,14.87
2023-05-12T22:29:25.128Z,14.91
2023-05-12T22:31:57.494Z,14.91
2023-05-12T22:34:29.978Z,14.91
2023-05-12T22:37:02.675Z,14.92
2023-05-12T22:39:35.154Z,14.88
2023-05-12T22:42:07.579Z,14.88
2023-05-12T22:44:39.930Z,14.87
2023-05-12T22:47:12.468Z,14.75
2023-05-12T22:49:44.756Z,14.78
2023-05-12T22:52:17.215Z,14.77
2023-05-12T22:54:50.820Z,14.77
2023-05-12T22:57:23.663Z,14.76
2023-05-12T22:59:55.911Z,14.75
2023-05-12T23:02:28.219Z,14.74
2023-05-12T23:05:00.185Z,14.74
2023-05-12T23:07:33.439Z,14.71
2023-05-12T23:10:05.993Z,14.67
2023-05-12T23:12:38.403Z,14.58
2023-05-12T23:15:11.182Z,14.54
2023-05-12T23:17:43.726Z,14.40
2023-05-12T23:20:18.784Z,14.33
2023-05-12T23:22:51.178Z,14.26
2023-05-12T23:25:24.060Z,14.20
2023-05-12T23:27:56.252Z,14.10
2023-05-12T23:30:30.110Z,14.03
2023-05-12T23:33:02.517Z,13.95
2023-05-12T23:35:36.013Z,13.92
2023-05-12T23:38:08.330Z,13.88
2023-05-12T23:40:40.684Z,13.83
2023-05-12T23:43:13.000Z,13.77
2023-05-12T23:45:45.837Z,13.69
2023-05-12T23:48:18.066Z,13.62
2023-05-12T23:50:50.183Z,13.59
2023-05-12T23:53:22.154Z,13.53
2023-05-12T23:55:54.629Z,13.54
2023-05-12T23:58:26.863Z,13.53
